Time;durP1;ratioP1;P1;durP2;ratioP2;P2;SDS_P1;SDS_P2;PMS_P1;PMS_P2;Temp;Humidity;BMP_temperature;BMP_pressure;BME280_temperature;BME280_humidity;BME280_pressure;Samples;Min_cycle;Max_cycle;Signal;HPM_P1;HPM_P2
2023/10/13 00:00:37;;;;;;;6.50;3.38;;;;;;;;;;2073147;28;20049;-57
2023/10/13 00:01:37;;;;;;;8.60;2.72;;;;;;;;;;2073522;28;20463;-57
2023/10/13 00:02:39;;;;;;;10.35;3.40;;;;;;;;;;2073450;28;20137;-57
2023/10/13 00:03:40;;;;;;;7.95;3.38;;;;;;;;;;2073791;28;20044;-57
2023/10/13 00:04:42;;;;;;;12.05;3.92;;;;;;;;;;2073956;28;20038;-57
2023/10/13 00:05:43;;;;;;;7.95;3.50;;;;;;;;;;2073611;28;20042;-57
2023/10/13 00:06:45;;;;;;;7.82;2.83;;;;;;;;;;2074009;28;20473;-57
2023/10/13 00:07:46;;;;;;;9.82;3.53;;;;;;;;;;2073953;28;20026;-57
2023/10/13 00:08:48;;;;;;;10.18;3.80;;;;;;;;;;2074426;28;20446;-57
2023/10/13 00:09:49;;;;;;;6.88;2.80;;;;;;;;;;2073572;28;20482;-57
2023/10/13 00:10:49;;;;;;;7.68;3.63;;;;;;;;;;2073850;28;20041;-57
2023/10/13 00:11:52;;;;;;;8.35;3.08;;;;;;;;;;2073863;28;20049;-58
2023/10/13 00:12:53;;;;;;;8.63;3.45;;;;;;;;;;2073609;28;20050;-57
2023/10/13 00:13:54;;;;;;;6.38;3.05;;;;;;;;;;2073990;28;20029;-57
2023/10/13 00:14:54;;;;;;;9.68;3.30;;;;;;;;;;2073109;28;20030;-58
2023/10/13 00:17:05;;;;;;;9.57;3.00;;;;;;;;;;2073567;28;20054;-57
2023/10/13 00:18:12;;;;;;;8.63;3.22;;;;;;;;;;2073608;28;20045;-57
2023/10/13 00:19:13;;;;;;;6.53;2.95;;;;;;;;;;2073976;28;20050;-57
2023/10/13 00:20:35;;;;;;;11.15;3.00;;;;;;;;;;2074005;28;20493;-58
2023/10/13 00:21:37;;;;;;;7.57;3.50;;;;;;;;;;2073858;28;20046;-57
2023/10/13 00:22:40;;;;;;;7.55;3.05;;;;;;;;;;2073911;28;20053;-57
2023/10/13 00:23:53;;;;;;;9.13;3.28;;;;;;;;;;2074070;28;20056;-57
2023/10/13 00:25:03;;;;;;;9.65;2.80;;;;;;;;;;2072735;28;20045;-57
2023/10/13 00:26:04;;;;;;;8.95;3.20;;;;;;;;;;2073350;28;20052;-57
2023/10/13 00:27:04;;;;;;;6.38;2.88;;;;;;;;;;2074191;28;20359;-57
2023/10/13 00:28:08;;;;;;;8.27;2.90;;;;;;;;;;2073694;28;20042;-57
2023/10/13 00:30:32;;;;;;;7.38;3.15;;;;;;;;;;2072744;28;20046;-57
2023/10/13 00:31:38;;;;;;;12.25;3.92;;;;;;;;;;2074087;28;20038;-57
2023/10/13 00:32:42;;;;;;;8.60;3.10;;;;;;;;;;2073231;28;20042;-57
2023/10/13 00:33:46;;;;;;;7.70;2.97;;;;;;;;;;2064539;28;20042;-57
2023/10/13 00:34:47;;;;;;;9.00;3.30;;;;;;;;;;2072944;28;20049;-58
2023/10/13 00:35:51;;;;;;;8.23;3.17;;;;;;;;;;2073401;28;20053;-57
2023/10/13 00:38:14;;;;;;;10.70;3.45;;;;;;;;;;2073726;28;20056;-57
2023/10/13 00:39:15;;;;;;;8.65;3.35;;;;;;;;;;2073754;28;20045;-57
2023/10/13 00:40:41;;;;;;;7.43;2.85;;;;;;;;;;2073381;28;20046;-57
2023/10/13 00:41:56;;;;;;;9.25;3.38;;;;;;;;;;2074132;28;20030;-57
2023/10/13 00:44:28;;;;;;;7.90;3.42;;;;;;;;;;2073467;28;20049;-57
2023/10/13 00:45:30;;;;;;;11.35;3.47;;;;;;;;;;2073096;28;20041;-57
2023/10/13 00:46:33;;;;;;;5.40;3.00;;;;;;;;;;2064312;28;20046;-57
2023/10/13 00:48:51;;;;;;;7.50;3.35;;;;;;;;;;2073408;28;20477;-57
2023/10/13 00:49:53;;;;;;;6.13;2.85;;;;;;;;;;2073183;28;20057;-57
2023/10/13 00:50:56;;;;;;;7.82;2.97;;;;;;;;;;2064275;28;20038;-57
2023/10/13 00:51:57;;;;;;;7.20;3.20;;;;;;;;;;2065685;28;20034;-57
2023/10/13 00:52:58;;;;;;;9.00;3.55;;;;;;;;;;2073952;28;20386;-57
2023/10/13 00:54:00;;;;;;;6.88;2.97;;;;;;;;;;2073083;28;20030;-57
2023/10/13 00:55:00;;;;;;;6.15;2.90;;;;;;;;;;2072351;28;20041;-57
2023/10/13 00:56:07;;;;;;;6.88;3.28;;;;;;;;;;2073255;28;20042;-57
2023/10/13 00:57:12;;;;;;;10.65;3.47;;;;;;;;;;2065297;28;20422;-57
2023/10/13 00:58:14;;;;;;;9.93;3.20;;;;;;;;;;2065362;28;20073;-57
2023/10/13 00:59:15;;;;;;;11.20;3.38;;;;;;;;;;2065724;28;20038;-57
2023/10/13 01:00:24;;;;;;;13.40;3.78;;;;;;;;;;2073120;28;20042;-58
2023/10/13 01:01:29;;;;;;;9.05;3.25;;;;;;;;;;2073782;28;20074;-57
2023/10/13 01:03:38;;;;;;;6.28;3.40;;;;;;;;;;2073589;28;20044;-57
2023/10/13 01:04:38;;;;;;;11.13;3.72;;;;;;;;;;2073729;28;20033;-58
2023/10/13 01:05:40;;;;;;;7.85;3.45;;;;;;;;;;2073658;28;20042;-57
2023/10/13 01:06:40;;;;;;;11.02;3.35;;;;;;;;;;2073595;28;20030;-57
2023/10/13 01:07:41;;;;;;;9.55;3.40;;;;;;;;;;2073805;28;20034;-57
2023/10/13 01:08:44;;;;;;;12.43;3.03;;;;;;;;;;2072384;28;20045;-57
2023/10/13 01:09:47;;;;;;;12.02;3.20;;;;;;;;;;2073088;28;20442;-57
2023/10/13 01:10:49;;;;;;;8.30;3.15;;;;;;;;;;2073339;28;20044;-57
2023/10/13 01:11:54;;;;;;;8.30;3.10;;;;;;;;;;2073730;28;20037;-57
2023/10/13 01:12:55;;;;;;;10.43;3.42;;;;;;;;;;2072946;28;20498;-57
2023/10/13 01:13:56;;;;;;;10.82;3.67;;;;;;;;;;2064300;28;20038;-57
2023/10/13 01:14:57;;;;;;;11.85;3.83;;;;;;;;;;2072294;28;20504;-57
2023/10/13 01:15:58;;;;;;;7.45;3.22;;;;;;;;;;2073571;28;20084;-57
2023/10/13 01:17:01;;;;;;;6.63;3.53;;;;;;;;;;2072430;28;20038;-57
2023/10/13 01:18:12;;;;;;;10.90;3.25;;;;;;;;;;2073903;28;20045;-57
2023/10/13 01:19:13;;;;;;;10.88;3.40;;;;;;;;;;2075021;28;20072;-57
2023/10/13 01:20:24;;;;;;;7.90;3.08;;;;;;;;;;2073995;28;20530;-58
2023/10/13 01:21:27;;;;;;;8.98;3.60;;;;;;;;;;2067742;28;20106;-57
2023/10/13 01:22:28;;;;;;;9.07;3.40;;;;;;;;;;2073999;28;20117;-57
2023/10/13 01:23:37;;;;;;;9.68;3.45;;;;;;;;;;2074263;28;20048;-57
2023/10/13 01:24:38;;;;;;;;;;;;;;;;;;2074920;28;20037;-57
2023/10/13 01:25:40;;;;;;;9.30;3.80;;;;;;;;;;2074555;28;19905;-57
2023/10/13 01:26:42;;;;;;;8.60;3.38;;;;;;;;;;2074615;28;20041;-57
2023/10/13 01:27:44;;;;;;;7.88;3.55;;;;;;;;;;2075273;28;20041;-57
2023/10/13 01:28:46;;;;;;;6.55;3.17;;;;;;;;;;2074601;28;20045;-57
2023/10/13 01:30:29;;;;;;;7.65;4.00;;;;;;;;;;2066137;28;20038;-57
2023/10/13 01:31:13;;;;;;;8.23;3.45;;;;;;;;;;2069433;28;20049;-57
2023/10/13 01:32:14;;;;;;;9.68;3.70;;;;;;;;;;2074574;28;20049;-59
2023/10/13 01:33:26;;;;;;;10.40;3.40;;;;;;;;;;2075366;28;20038;-57
2023/10/13 01:34:27;;;;;;;9.93;3.80;;;;;;;;;;2075375;28;20038;-57
2023/10/13 01:35:36;;;;;;;12.95;3.70;;;;;;;;;;2074764;28;20053;-57
2023/10/13 01:36:40;;;;;;;9.98;3.40;;;;;;;;;;2074316;28;20088;-57
2023/10/13 01:37:40;;;;;;;8.95;3.00;;;;;;;;;;2074557;28;20030;-58
2023/10/13 01:38:42;;;;;;;8.50;3.45;;;;;;;;;;2074721;28;20510;-58
2023/10/13 01:39:47;;;;;;;9.32;3.05;;;;;;;;;;2075172;28;20033;-58
2023/10/13 01:40:51;;;;;;;7.32;3.13;;;;;;;;;;2074398;28;20533;-57
2023/10/13 01:41:55;;;;;;;9.43;3.15;;;;;;;;;;2066245;28;20045;-57
2023/10/13 01:42:56;;;;;;;8.75;3.47;;;;;;;;;;2074418;28;20466;-57
2023/10/13 01:43:57;;;;;;;7.40;3.20;;;;;;;;;;2074653;28;20046;-57
2023/10/13 01:45:05;;;;;;;8.38;3.50;;;;;;;;;;2074937;28;20025;-57
2023/10/13 01:46:05;;;;;;;6.13;2.75;;;;;;;;;;2074624;28;20065;-57
2023/10/13 01:47:06;;;;;;;8.80;3.58;;;;;;;;;;2074745;28;20148;-58
2023/10/13 01:48:07;;;;;;;10.07;3.63;;;;;;;;;;2073744;28;20506;-57
2023/10/13 01:49:07;;;;;;;8.93;3.38;;;;;;;;;;2073784;28;20081;-58
2023/10/13 01:50:20;;;;;;;10.15;3.58;;;;;;;;;;2074256;28;20050;-57
2023/10/13 01:51:27;;;;;;;8.30;3.58;;;;;;;;;;2075253;28;20478;-57
2023/10/13 01:52:29;;;;;;;7.53;3.53;;;;;;;;;;2075105;28;20034;-58
2023/10/13 01:53:30;;;;;;;8.13;3.30;;;;;;;;;;2074255;28;20053;-57
2023/10/13 01:54:32;;;;;;;9.10;3.25;;;;;;;;;;2066521;28;20490;-53
2023/10/13 01:55:42;;;;;;;8.70;3.60;;;;;;;;;;2074550;28;20034;-53
2023/10/13 01:56:43;;;;;;;7.55;3.60;;;;;;;;;;2074429;28;20030;-53
2023/10/13 01:57:47;;;;;;;8.25;3.35;;;;;;;;;;2057658;28;20129;-53
2023/10/13 01:58:48;;;;;;;12.20;3.40;;;;;;;;;;2059032;28;20038;-53
2023/10/13 01:59:49;;;;;;;7.80;2.88;;;;;;;;;;2065466;28;20490;-52
2023/10/13 02:00:50;;;;;;;10.45;3.70;;;;;;;;;;2074308;28;20046;-53
2023/10/13 02:01:51;;;;;;;6.22;3.08;;;;;;;;;;2065686;28;20042;-53
2023/10/13 02:02:52;;;;;;;12.57;3.60;;;;;;;;;;2066135;28;20050;-53
2023/10/13 02:04:02;;;;;;;7.88;3.15;;;;;;;;;;2074477;28;20374;-53
2023/10/13 02:05:03;;;;;;;7.75;3.00;;;;;;;;;;2074250;28;20034;-52
2023/10/13 02:06:04;;;;;;;11.23;3.65;;;;;;;;;;2066156;28;20522;-53
2023/10/13 02:07:09;;;;;;;7.95;3.28;;;;;;;;;;2073370;28;20137;-52
2023/10/13 02:08:17;;;;;;;7.20;3.40;;;;;;;;;;2074525;28;20046;-53
2023/10/13 02:09:25;;;;;;;10.20;3.60;;;;;;;;;;2074359;28;20066;-52
2023/10/13 02:10:28;;;;;;;6.78;3.17;;;;;;;;;;2073999;28;20046;-53
2023/10/13 02:11:30;;;;;;;13.73;3.85;;;;;;;;;;2074899;28;20033;-53
2023/10/13 02:12:42;;;;;;;11.85;3.53;;;;;;;;;;2074732;28;20042;-53
2023/10/13 02:13:48;;;;;;;7.38;3.75;;;;;;;;;;2074878;28;20386;-53
2023/10/13 02:14:49;;;;;;;6.57;3.30;;;;;;;;;;2073366;28;20053;-53
2023/10/13 02:15:52;;;;;;;10.55;3.70;;;;;;;;;;2065862;28;20061;-52
2023/10/13 02:17:11;;;;;;;8.95;3.55;;;;;;;;;;2074355;28;20406;-53
2023/10/13 02:18:20;;;;;;;8.57;3.65;;;;;;;;;;2074857;28;20058;-53
2023/10/13 02:19:21;;;;;;;10.35;3.45;;;;;;;;;;2074354;28;20528;-52
2023/10/13 02:20:25;;;;;;;10.95;3.30;;;;;;;;;;2074729;28;20050;-53
2023/10/13 02:21:31;;;;;;;6.30;3.30;;;;;;;;;;2073490;28;20049;-52
2023/10/13 02:22:32;;;;;;;8.68;2.90;;;;;;;;;;2066844;28;20495;-52
2023/10/13 02:23:33;;;;;;;14.02;3.50;;;;;;;;;;2073471;28;20034;-52
2023/10/13 02:24:33;;;;;;;8.80;3.53;;;;;;;;;;2066023;28;20070;-53
2023/10/13 02:25:45;;;;;;;8.63;3.22;;;;;;;;;;2065689;28;20078;-52
2023/10/13 02:26:46;;;;;;;10.00;3.42;;;;;;;;;;2067700;28;20038;-52
2023/10/13 02:27:58;;;;;;;11.90;3.60;;;;;;;;;;2073816;28;20043;-53
2023/10/13 02:29:01;;;;;;;9.88;3.58;;;;;;;;;;2073951;28;20038;-54
2023/10/13 02:30:02;;;;;;;6.07;3.00;;;;;;;;;;2074069;28;20045;-52
2023/10/13 02:31:03;;;;;;;7.05;2.83;;;;;;;;;;2074662;28;20097;-53
2023/10/13 02:32:04;;;;;;;9.70;3.08;;;;;;;;;;2074717;28;20466;-53
2023/10/13 02:33:06;;;;;;;8.75;3.00;;;;;;;;;;2074606;28;20053;-52
2023/10/13 02:34:07;;;;;;;8.23;3.13;;;;;;;;;;2074820;28;20038;-52
2023/10/13 02:35:14;;;;;;;8.75;3.05;;;;;;;;;;2074786;28;20038;-52
2023/10/13 02:36:22;;;;;;;10.15;3.55;;;;;;;;;;2073514;28;20049;-53
2023/10/13 02:37:22;;;;;;;9.20;3.30;;;;;;;;;;2073579;28;20050;-53
2023/10/13 02:39:41;;;;;;;9.98;3.88;;;;;;;;;;2073944;28;20041;-52
2023/10/13 02:40:41;;;;;;;9.57;3.47;;;;;;;;;;2073356;28;20042;-52
2023/10/13 02:41:48;;;;;;;10.50;3.85;;;;;;;;;;2074574;28;20466;-53
2023/10/13 02:42:49;;;;;;;8.48;3.08;;;;;;;;;;2074862;28;20029;-53
2023/10/13 02:43:49;;;;;;;6.60;3.35;;;;;;;;;;2074029;28;20042;-52
2023/10/13 02:44:51;;;;;;;9.13;3.30;;;;;;;;;;2074379;28;20049;-52
2023/10/13 02:45:57;;;;;;;8.05;3.20;;;;;;;;;;2074608;28;20034;-52
2023/10/13 02:46:58;;;;;;;9.35;3.38;;;;;;;;;;2074139;28;20037;-52
2023/10/13 02:48:13;;;;;;;9.82;2.80;;;;;;;;;;2073906;28;20061;-53
2023/10/13 02:49:14;;;;;;;7.70;3.13;;;;;;;;;;2074147;28;20085;-53
2023/10/13 02:50:18;;;;;;;8.52;3.50;;;;;;;;;;2074220;28;20493;-53
2023/10/13 02:51:22;;;;;;;8.90;3.88;;;;;;;;;;2074469;28;20049;-53
2023/10/13 02:52:24;;;;;;;8.43;3.47;;;;;;;;;;2073914;28;20064;-53
2023/10/13 02:53:28;;;;;;;8.00;3.28;;;;;;;;;;2066034;28;20054;-53
2023/10/13 02:54:31;;;;;;;7.15;3.22;;;;;;;;;;2074053;28;20037;-53
2023/10/13 02:55:32;;;;;;;10.98;4.10;;;;;;;;;;2074156;28;20397;-52
2023/10/13 02:56:33;;;;;;;8.15;2.97;;;;;;;;;;2073215;28;20049;-53
2023/10/13 02:57:34;;;;;;;9.80;3.03;;;;;;;;;;2073841;28;20034;-52
2023/10/13 02:58:38;;;;;;;8.48;3.42;;;;;;;;;;2073871;28;20052;-52
2023/10/13 02:59:40;;;;;;;9.95;3.13;;;;;;;;;;2073839;28;20058;-52
2023/10/13 03:00:41;;;;;;;9.80;3.13;;;;;;;;;;2074467;28;20045;-53
2023/10/13 03:01:42;;;;;;;9.27;3.28;;;;;;;;;;2074070;28;20050;-53
2023/10/13 03:02:47;;;;;;;7.72;3.40;;;;;;;;;;2074384;28;20038;-52
2023/10/13 03:03:54;;;;;;;9.25;3.72;;;;;;;;;;2074734;28;20084;-52
2023/10/13 03:05:09;;;;;;;7.50;2.45;;;;;;;;;;2073015;28;20517;-53
2023/10/13 03:06:11;;;;;;;9.65;3.65;;;;;;;;;;2073137;28;20042;-53
2023/10/13 03:07:15;;;;;;;9.50;3.47;;;;;;;;;;2073223;28;20057;-52
2023/10/13 03:08:25;;;;;;;8.05;3.30;;;;;;;;;;2066089;28;20030;-53
2023/10/13 03:09:26;;;;;;;9.02;3.35;;;;;;;;;;2073901;28;20045;-53
2023/10/13 03:10:28;;;;;;;9.38;3.45;;;;;;;;;;2074352;28;20045;-52
2023/10/13 03:11:33;;;;;;;11.55;3.35;;;;;;;;;;2074300;28;20053;-53
2023/10/13 03:12:33;;;;;;;8.52;2.88;;;;;;;;;;2074424;28;20037;-53
2023/10/13 03:13:34;;;;;;;11.35;3.60;;;;;;;;;;2074266;28;20042;-52
2023/10/13 03:14:35;;;;;;;6.70;3.38;;;;;;;;;;2073995;28;20490;-52
2023/10/13 03:15:36;;;;;;;7.43;3.17;;;;;;;;;;2073432;28;20037;-53
2023/10/13 03:16:36;;;;;;;10.30;3.40;;;;;;;;;;2073482;28;20050;-52
2023/10/13 03:17:43;;;;;;;10.85;3.67;;;;;;;;;;2073708;28;20049;-53
2023/10/13 03:18:53;;;;;;;11.18;3.80;;;;;;;;;;2074439;28;20145;-52
2023/10/13 03:19:55;;;;;;;8.77;3.03;;;;;;;;;;2074062;28;20042;-52
2023/10/13 03:20:59;;;;;;;11.25;3.85;;;;;;;;;;2074399;28;20037;-52
2023/10/13 03:22:09;;;;;;;9.65;2.72;;;;;;;;;;2074305;28;20046;-53
2023/10/13 03:23:10;;;;;;;10.73;3.30;;;;;;;;;;2074416;28;20038;-53
2023/10/13 03:24:13;;;;;;;8.85;3.35;;;;;;;;;;2074418;28;20493;-52
2023/10/13 03:26:08;;;;;;;8.02;3.40;;;;;;;;;;2074655;28;20037;-53
2023/10/13 03:26:36;;;;;;;11.48;3.25;;;;;;;;;;2063709;28;20057;-52
2023/10/13 03:27:47;;;;;;;9.88;3.70;;;;;;;;;;2073558;28;20034;-52
2023/10/13 03:28:52;;;;;;;10.07;3.33;;;;;;;;;;2074331;28;20050;-52
2023/10/13 03:29:56;;;;;;;8.88;3.58;;;;;;;;;;2074119;28;20046;-53
2023/10/13 03:31:01;;;;;;;7.03;2.92;;;;;;;;;;2074276;28;20485;-52
2023/10/13 03:32:06;;;;;;;8.48;3.38;;;;;;;;;;2074165;28;20030;-52
2023/10/13 03:33:11;;;;;;;7.35;3.25;;;;;;;;;;2074214;28;20046;-52
2023/10/13 03:34:13;;;;;;;6.22;3.00;;;;;;;;;;2074528;28;20033;-52
2023/10/13 03:35:23;;;;;;;6.72;3.03;;;;;;;;;;2074207;28;20042;-52
2023/10/13 03:37:43;;;;;;;9.25;3.55;;;;;;;;;;2074652;28;20034;-52
2023/10/13 03:38:45;;;;;;;8.90;3.20;;;;;;;;;;2074097;28;20030;-52
2023/10/13 03:39:46;;;;;;;8.63;3.67;;;;;;;;;;2074088;28;20033;-52
2023/10/13 03:40:56;;;;;;;7.20;3.10;;;;;;;;;;2073480;28;20058;-52
2023/10/13 03:41:57;;;;;;;7.35;3.25;;;;;;;;;;2073656;28;20046;-52
2023/10/13 03:43:04;;;;;;;6.65;3.17;;;;;;;;;;2073929;28;20466;-52
2023/10/13 03:44:12;;;;;;;9.80;3.38;;;;;;;;;;2074169;28;20470;-52
2023/10/13 03:45:13;;;;;;;8.40;3.78;;;;;;;;;;2074047;28;20041;-52
2023/10/13 03:46:15;;;;;;;12.18;3.58;;;;;;;;;;2074257;28;20552;-52
2023/10/13 03:47:18;;;;;;;10.38;3.42;;;;;;;;;;2074327;28;20046;-54
2023/10/13 03:49:26;;;;;;;8.10;3.33;;;;;;;;;;2073833;28;20076;-53
2023/10/13 03:50:31;;;;;;;8.27;3.00;;;;;;;;;;2074049;28;20413;-53
2023/10/13 03:51:32;;;;;;;8.35;3.08;;;;;;;;;;2074058;28;20045;-53
2023/10/13 03:52:35;;;;;;;8.02;3.15;;;;;;;;;;2074132;28;20050;-53
2023/10/13 03:53:52;;;;;;;7.45;3.08;;;;;;;;;;2074003;28;20036;-53
2023/10/13 03:54:53;;;;;;;11.68;3.08;;;;;;;;;;2073603;28;20049;-53
2023/10/13 03:56:07;;;;;;;10.20;3.80;;;;;;;;;;2073500;28;20080;-53
2023/10/13 03:57:11;;;;;;;7.75;2.97;;;;;;;;;;2073511;28;20046;-53
2023/10/13 03:58:12;;;;;;;8.90;3.47;;;;;;;;;;2074189;28;20049;-53
2023/10/13 04:00:23;;;;;;;11.65;3.55;;;;;;;;;;2073959;28;20092;-53
2023/10/13 04:02:51;;;;;;;10.90;3.38;;;;;;;;;;2074164;28;20030;-53
2023/10/13 04:04:03;;;;;;;9.48;3.00;;;;;;;;;;2074036;28;20038;-53
2023/10/13 04:05:09;;;;;;;7.65;3.67;;;;;;;;;;2074147;28;20402;-53
2023/10/13 04:06:18;;;;;;;7.22;3.08;;;;;;;;;;2073947;28;20049;-53
2023/10/13 04:09:51;;;;;;;9.30;3.30;;;;;;;;;;2074328;28;20030;-53
2023/10/13 04:14:24;;;;;;;8.93;3.22;;;;;;;;;;2074477;28;20373;-53
2023/10/13 04:15:35;;;;;;;8.05;3.95;;;;;;;;;;2073700;28;20053;-53
2023/10/13 04:16:36;;;;;;;9.95;3.13;;;;;;;;;;2073602;28;20058;-53
2023/10/13 04:17:46;;;;;;;7.88;3.20;;;;;;;;;;2074039;28;20042;-52
2023/10/13 04:18:59;;;;;;;7.43;3.55;;;;;;;;;;2074004;28;20041;-53
2023/10/13 04:21:36;;;;;;;8.93;3.53;;;;;;;;;;2073504;28;20054;-53
2023/10/13 04:25:34;;;;;;;8.30;3.20;;;;;;;;;;2074201;28;20030;-53
2023/10/13 04:26:36;;;;;;;8.55;3.67;;;;;;;;;;2073933;28;20050;-53
2023/10/13 04:27:44;;;;;;;11.30;3.03;;;;;;;;;;2074220;28;20030;-56
2023/10/13 04:28:51;;;;;;;13.57;3.35;;;;;;;;;;2073551;28;20046;-53
2023/10/13 04:30:01;;;;;;;8.90;3.35;;;;;;;;;;2073541;28;20041;-53
2023/10/13 04:31:24;;;;;;;14.35;3.95;;;;;;;;;;2074065;28;20053;-54
2023/10/13 04:32:38;;;;;;;9.65;3.42;;;;;;;;;;2074007;28;20050;-53
2023/10/13 04:34:01;;;;;;;9.15;3.20;;;;;;;;;;2073310;28;20038;-54
2023/10/13 04:37:32;;;;;;;9.73;3.10;;;;;;;;;;2073937;28;20050;-52
2023/10/13 04:38:50;;;;;;;12.00;3.58;;;;;;;;;;2074263;28;20038;-53
2023/10/13 04:39:57;;;;;;;7.13;2.88;;;;;;;;;;2073892;28;20030;-53
2023/10/13 04:41:02;;;;;;;8.95;3.20;;;;;;;;;;2076669;28;20386;-53
2023/10/13 04:42:25;;;;;;;8.27;3.22;;;;;;;;;;2073607;28;20054;-53
2023/10/13 04:43:33;;;;;;;13.00;3.80;;;;;;;;;;2073767;28;20038;-53
2023/10/13 04:44:49;;;;;;;8.07;3.30;;;;;;;;;;2073801;28;20042;-53
2023/10/13 04:45:54;;;;;;;8.95;3.08;;;;;;;;;;2073363;28;20053;-53
2023/10/13 04:47:07;;;;;;;9.45;3.20;;;;;;;;;;2074184;28;20034;-52
2023/10/13 04:49:28;;;;;;;9.20;2.95;;;;;;;;;;2074613;28;20397;-59
2023/10/13 04:50:34;;;;;;;8.52;3.13;;;;;;;;;;2074671;28;20049;-52
2023/10/13 04:51:58;;;;;;;9.05;3.10;;;;;;;;;;2074574;28;20041;-53
2023/10/13 04:53:02;;;;;;;7.85;3.15;;;;;;;;;;2075494;28;20053;-52
2023/10/13 04:54:25;;;;;;;7.72;2.78;;;;;;;;;;2075923;28;20049;-52
2023/10/13 04:55:43;;;;;;;9.85;3.25;;;;;;;;;;2075478;28;20045;-53
2023/10/13 04:56:59;;;;;;;7.82;2.90;;;;;;;;;;2075203;28;20117;-53
2023/10/13 04:58:11;;;;;;;8.98;3.13;;;;;;;;;;2075735;28;20033;-53
2023/10/13 04:59:17;;;;;;;10.48;3.17;;;;;;;;;;2075675;28;20053;-53
2023/10/13 05:03:53;;;;;;;5.93;2.70;;;;;;;;;;2075445;28;20026;-53
2023/10/13 05:05:21;;;;;;;7.38;3.10;;;;;;;;;;2075424;28;20046;-53
2023/10/13 05:45:16;;;;;;;10.30;3.35;;;;;;;;;;2075103;28;20469;-54
2023/10/13 05:50:57;;;;;;;9.35;3.13;;;;;;;;;;2074778;28;20483;-52
2023/10/13 06:29:40;;;;;;;10.23;2.67;;;;;;;;;;2066903;28;20049;-52
2023/10/13 06:30:44;;;;;;;10.00;3.75;;;;;;;;;;2066800;28;20061;-53
2023/10/13 06:31:45;;;;;;;6.47;2.65;;;;;;;;;;2066524;28;20035;-53
2023/10/13 06:32:46;;;;;;;10.98;3.00;;;;;;;;;;2066506;28;20043;-53
2023/10/13 06:33:47;;;;;;;10.45;3.10;;;;;;;;;;2066804;28;20390;-53
2023/10/13 06:34:50;;;;;;;7.78;2.78;;;;;;;;;;2066255;28;20122;-53
2023/10/13 06:35:51;;;;;;;10.18;3.20;;;;;;;;;;2066605;28;20030;-53
2023/10/13 06:36:54;;;;;;;11.57;5.05;;;;;;;;;;2066825;28;20034;-52
2023/10/13 06:38:00;;;;;;;14.23;3.80;;;;;;;;;;2066395;28;20414;-53
2023/10/13 06:40:25;;;;;;;12.07;3.38;;;;;;;;;;2066323;28;20058;-52
2023/10/13 06:41:32;;;;;;;15.77;3.38;;;;;;;;;;2065655;28;20422;-51
2023/10/13 06:42:34;;;;;;;12.90;2.97;;;;;;;;;;2058573;28;20055;-52
2023/10/13 06:43:43;;;;;;;13.68;3.50;;;;;;;;;;2066045;28;20034;-53
2023/10/13 06:44:47;;;;;;;14.15;3.90;;;;;;;;;;2065844;28;20030;-52
2023/10/13 06:45:56;;;;;;;9.98;2.95;;;;;;;;;;2065815;28;20037;-53
2023/10/13 06:46:58;;;;;;;16.70;3.50;;;;;;;;;;2065632;28;20038;-54
2023/10/13 06:47:59;;;;;;;15.98;3.50;;;;;;;;;;2065939;28;20390;-66
2023/10/13 06:49:00;;;;;;;10.30;3.70;;;;;;;;;;2066173;28;20026;-59
2023/10/13 06:50:01;;;;;;;13.35;3.47;;;;;;;;;;2066468;28;20030;-53
2023/10/13 06:51:06;;;;;;;10.18;2.80;;;;;;;;;;2066469;28;20038;-61
2023/10/13 06:52:06;;;;;;;8.55;3.35;;;;;;;;;;2066493;28;20057;-57
2023/10/13 06:53:07;;;;;;;13.48;3.35;;;;;;;;;;2066478;28;20042;-51
2023/10/13 06:54:19;;;;;;;13.00;3.38;;;;;;;;;;2066423;28;20046;-71
2023/10/13 06:55:27;;;;;;;14.15;3.33;;;;;;;;;;2069514;28;20038;-51
2023/10/13 06:56:29;;;;;;;11.98;3.08;;;;;;;;;;2066606;28;20034;-53
2023/10/13 06:57:33;;;;;;;11.95;3.42;;;;;;;;;;2065938;28;20049;-52
2023/10/13 06:58:34;;;;;;;12.50;3.70;;;;;;;;;;2066216;28;20046;-53
2023/10/13 06:59:36;;;;;;;7.45;2.83;;;;;;;;;;2066230;28;20038;-53
2023/10/13 07:00:38;;;;;;;14.32;3.55;;;;;;;;;;2066346;28;20053;-51
2023/10/13 07:01:39;;;;;;;6.80;2.40;;;;;;;;;;2066219;28;20500;-52
2023/10/13 07:02:40;;;;;;;9.55;3.30;;;;;;;;;;2066430;28;20038;-54
2023/10/13 07:03:42;;;;;;;13.65;3.72;;;;;;;;;;2066355;28;20505;-51
2023/10/13 07:04:42;;;;;;;9.13;2.65;;;;;;;;;;2066406;28;20046;-51
2023/10/13 07:05:43;;;;;;;12.80;3.20;;;;;;;;;;2066070;28;20046;-53
2023/10/13 07:06:48;;;;;;;9.43;2.80;;;;;;;;;;2066516;28;20398;-53
2023/10/13 07:07:56;;;;;;;12.13;3.40;;;;;;;;;;2066310;28;20030;-52
2023/10/13 07:08:57;;;;;;;11.30;3.55;;;;;;;;;;2065294;28;20392;-54
2023/10/13 07:09:58;;;;;;;8.93;2.88;;;;;;;;;;2065450;28;20074;-52
2023/10/13 07:11:02;;;;;;;11.45;3.45;;;;;;;;;;2066147;28;20035;-53
2023/10/13 07:12:06;;;;;;;11.45;3.75;;;;;;;;;;2066467;28;20057;-52
2023/10/13 07:13:07;;;;;;;8.68;2.78;;;;;;;;;;2066138;28;20054;-53
2023/10/13 07:14:11;;;;;;;10.40;3.17;;;;;;;;;;2065825;28;20501;-53
2023/10/13 07:15:19;;;;;;;12.25;4.18;;;;;;;;;;2065985;28;20034;-53
2023/10/13 07:16:20;;;;;;;8.38;3.00;;;;;;;;;;2072765;28;20058;-52
2023/10/13 07:17:23;;;;;;;9.70;2.88;;;;;;;;;;2074123;28;20085;-52
2023/10/13 07:18:24;;;;;;;11.38;3.47;;;;;;;;;;2074525;28;20044;-53
2023/10/13 07:19:27;;;;;;;10.95;3.00;;;;;;;;;;2074230;28;20042;-53
2023/10/13 07:21:32;;;;;;;14.18;4.55;;;;;;;;;;2074283;28;20466;-53
2023/10/13 07:22:39;;;;;;;12.40;3.33;;;;;;;;;;2074264;28;20359;-52
2023/10/13 07:23:43;;;;;;;13.10;4.05;;;;;;;;;;2074135;28;20052;-53
2023/10/13 07:24:43;;;;;;;14.95;3.97;;;;;;;;;;2073902;28;20045;-53
2023/10/13 07:25:54;;;;;;;15.55;3.53;;;;;;;;;;2073883;28;20485;-52
2023/10/13 07:27:03;;;;;;;12.25;3.90;;;;;;;;;;2074437;28;20493;-53
2023/10/13 07:28:04;;;;;;;8.57;3.22;;;;;;;;;;2074449;28;20065;-57
2023/10/13 07:29:08;;;;;;;14.80;3.92;;;;;;;;;;2074320;28;20039;-53
2023/10/13 07:31:13;;;;;;;14.70;3.78;;;;;;;;;;2073710;28;20050;-53
2023/10/13 07:32:24;;;;;;;11.00;3.28;;;;;;;;;;2074148;28;20494;-53
2023/10/13 07:33:25;;;;;;;11.02;2.42;;;;;;;;;;2073993;28;20134;-53
2023/10/13 07:34:31;;;;;;;11.15;3.20;;;;;;;;;;2073698;28;20265;-53
2023/10/13 07:35:35;;;;;;;12.60;3.28;;;;;;;;;;2072972;28;20056;-53
2023/10/13 07:36:39;;;;;;;8.60;2.70;;;;;;;;;;2072784;28;20041;-53
2023/10/13 07:37:41;;;;;;;7.93;2.95;;;;;;;;;;2074184;28;20474;-54
2023/10/13 07:38:42;;;;;;;9.05;2.50;;;;;;;;;;2074025;28;20046;-53
2023/10/13 07:39:43;;;;;;;12.57;3.17;;;;;;;;;;2074115;28;20509;-53
2023/10/13 07:40:51;;;;;;;8.63;2.63;;;;;;;;;;2074178;28;20085;-53
2023/10/13 07:41:54;;;;;;;8.15;3.20;;;;;;;;;;2074265;28;20054;-53
2023/10/13 07:43:01;;;;;;;12.38;3.30;;;;;;;;;;2073975;28;20053;-53
2023/10/13 07:44:04;;;;;;;13.45;3.35;;;;;;;;;;2074391;28;20478;-55
2023/10/13 07:45:06;;;;;;;8.65;3.20;;;;;;;;;;2074084;28;20045;-54
2023/10/13 07:46:09;;;;;;;13.13;3.47;;;;;;;;;;2073950;28;20050;-53
2023/10/13 07:47:10;;;;;;;10.18;2.90;;;;;;;;;;2074142;28;20053;-53
2023/10/13 07:48:20;;;;;;;11.52;3.10;;;;;;;;;;2074059;28;20084;-54
2023/10/13 07:49:21;;;;;;;12.48;3.08;;;;;;;;;;2074410;28;20409;-53
2023/10/13 07:50:25;;;;;;;10.00;3.30;;;;;;;;;;2074162;28;20033;-53
2023/10/13 07:51:27;;;;;;;9.40;2.80;;;;;;;;;;2074051;28;20057;-52
2023/10/13 07:52:40;;;;;;;10.55;3.15;;;;;;;;;;2074199;28;20034;-55
2023/10/13 07:53:43;;;;;;;10.70;3.85;;;;;;;;;;2073684;28;20034;-52
2023/10/13 07:54:47;;;;;;;11.40;3.30;;;;;;;;;;2073086;28;20041;-53
2023/10/13 07:55:53;;;;;;;12.52;3.28;;;;;;;;;;2073928;28;20045;-52
2023/10/13 07:56:57;;;;;;;13.48;3.45;;;;;;;;;;2074197;28;20050;-53
2023/10/13 07:57:59;;;;;;;12.30;2.90;;;;;;;;;;2074384;28;20029;-53
2023/10/13 07:59:06;;;;;;;15.63;3.53;;;;;;;;;;2073327;28;20056;-54
2023/10/13 08:00:25;;;;;;;11.27;2.92;;;;;;;;;;2066261;28;20030;-53
2023/10/13 08:01:26;;;;;;;14.73;3.25;;;;;;;;;;2074043;28;20029;-54
2023/10/13 08:03:46;;;;;;;13.93;3.30;;;;;;;;;;2074080;28;20354;-53
2023/10/13 08:04:47;;;;;;;12.57;3.55;;;;;;;;;;2073928;28;20095;-53
2023/10/13 08:07:13;;;;;;;12.25;3.22;;;;;;;;;;2074271;28;20033;-53
2023/10/13 08:08:14;;;;;;;17.20;2.80;;;;;;;;;;2073975;28;20044;-53
2023/10/13 08:09:30;;;;;;;14.35;2.92;;;;;;;;;;2073775;28;20045;-53
2023/10/13 08:10:35;;;;;;;9.52;3.17;;;;;;;;;;2074386;28;20057;-53
2023/10/13 08:11:39;;;;;;;10.48;3.13;;;;;;;;;;2073982;28;20413;-53
2023/10/13 08:12:43;;;;;;;11.45;3.05;;;;;;;;;;2073632;28;20398;-54
2023/10/13 08:13:47;;;;;;;9.75;2.88;;;;;;;;;;2073545;28;20042;-54
2023/10/13 08:14:48;;;;;;;10.48;3.15;;;;;;;;;;2073837;28;20030;-53
2023/10/13 08:15:49;;;;;;;20.23;3.38;;;;;;;;;;2073338;28;20056;-53
2023/10/13 08:16:53;;;;;;;16.25;2.80;;;;;;;;;;2074355;28;20029;-53
2023/10/13 08:17:58;;;;;;;18.77;3.53;;;;;;;;;;2073562;28;20041;-53
2023/10/13 08:19:01;;;;;;;10.38;2.95;;;;;;;;;;2073374;28;20042;-53
2023/10/13 08:20:11;;;;;;;13.43;3.03;;;;;;;;;;2072681;28;20041;-53
2023/10/13 08:21:16;;;;;;;10.75;3.35;;;;;;;;;;2073549;28;20049;-53
2023/10/13 08:23:34;;;;;;;9.65;3.17;;;;;;;;;;2073936;28;20045;-53
2023/10/13 08:28:46;;;;;;;13.50;3.00;;;;;;;;;;2073579;28;20042;-54
2023/10/13 08:30:26;;;;;;;10.35;3.05;;;;;;;;;;2073870;28;20030;-58